Redondo, Valles Caldera, New Mexico Weather observations

Data are for 10 minute period ending at time listed.
 Day   Time   Solar   Ave.   Ave.  Ave.  Vector  Max.   Baro.   Total    
  of    of     Rad.   Air    Rel.  Wind   Wind   Wind  Press.  Precip.   
Year   Day            Temp.  Hum.  Speed  Dir.   Gust                    
2014   (MST)  Kw/m2    F      %     mph   deg.    mph    mb.     in.     
-------------------------------------------------------------------------
 112    1:30   0.00   34.9    86    5.9   180    10.2   692.8    0.00 
 112    1:40   0.00   34.5    86    5.4   181     9.0   692.8    0.00 
 112    1:50   0.00   34.1    88    5.7   182     9.0   692.8    0.00 
 112    2:00   0.00   34.0    88    5.3   181     7.8   692.7    0.00 
 112    2:10   0.00   34.1    88    5.4   178     9.6   692.6    0.00 
 112    2:20   0.00   34.3    87    6.0   182    10.2   692.5    0.00 
 112    2:30   0.00   34.8    86    6.5   181    10.8   692.5    0.00 
 112    2:40   0.00   34.8    86    6.4   181    12.5   692.5    0.00 
 112    2:50   0.00   34.6    86    6.1   180     9.6   692.4    0.00 
 112    3:00   0.00   34.3    87    6.5   182    13.7   692.3    0.00 
 112    3:10   0.00   33.7    89    6.5   181    11.3   692.2    0.00 
 112    3:20   0.00   33.4    90    6.2   184    10.2   692.2    0.00 
 112    3:30   0.00   33.2    91    6.0   181    13.7   692.2    0.00 
 112    3:40   0.00   33.0    92    6.2   182    11.3   692.1    0.00 
 112    3:50   0.00   33.1    92    6.5   179    10.2   692.1    0.00 
 112    4:00   0.00   33.1    93    6.7   180    14.3   692.1    0.00 
 112    4:10   0.00   33.1    93    6.7   180    10.2   692.0    0.00 
 112    4:20   0.00   32.9    94    6.2   178    10.2   691.9    0.00 
 112    4:30   0.00   33.0    94    6.4   179    10.8   691.8    0.00 
 112    4:40   0.00   33.1    95    6.0   176    13.7   691.8    0.00 
 112    4:50   0.00   33.0    95    5.9   179    10.2   691.8    0.00 
 112    5:00   0.00   33.0    95    5.5   176     9.6   691.8    0.00 
 112    5:10   0.00   33.0    95    6.0   173    11.3   691.7    0.00 
 112    5:20   0.00   33.1    96    5.9   177     9.0   691.7    0.00 
 112    5:30   0.00   32.7    96    5.6   175     8.4   691.7    0.00 
 112    5:40   0.01   32.7    96    5.5   176     7.8   691.7    0.00 
 112    5:50   0.02   32.7    96    5.7   170     9.0   691.8    0.00 
 112    6:00   0.03   33.1    96    6.1   169    10.8   691.9    0.00 
 112    6:10   0.04   34.4    96    6.0   168    11.3   691.9    0.00 
 112    6:20   0.05   36.2    88    6.8   165    14.9   691.9    0.00 
 112    6:30   0.10   37.6    80    6.1   170    15.5   691.9    0.00 
 112    6:40   0.20   39.2    74    6.0   176    12.5   691.9    0.00 
 112    6:50   0.25   40.5    70    6.7   173    14.9   691.9    0.00 
 112    7:00   0.18   41.0    68    7.4   172    17.3   691.8    0.00 
 112    7:10   0.18   41.6    66    6.6   178    13.7   691.7    0.00 
 112    7:20   0.18   42.0    64    8.0   184    14.3   691.7    0.00 
 112    7:30   0.24   42.1    63    8.2   170    16.1   691.6    0.00 
 112    7:40   0.39   42.7    62    7.5   177    14.9   691.6    0.00 
 112    7:50   0.49   43.7    60    7.0   182    11.9   691.6    0.00 
 112    8:00   0.47   44.3    59    6.1   184    14.9   691.6    0.00 
 112    8:10   0.27   43.8    58    6.6   178    14.3   691.6    0.00 
 112    8:20   0.36   43.4    58    6.7   197    14.3   691.6    0.00 
 112    8:30   0.48   43.6    57    6.5   186    16.7   691.6    0.00 
 112    8:40   0.60   45.2    56    6.4   188    13.1   691.5    0.00 
 112    8:50   0.67   45.6    58    7.1   181    14.9   691.6    0.00 
 112    9:00   0.68   46.6    58    6.2   174    10.8   691.6    0.00 
 112    9:10   0.73   47.3    54    5.6   191    11.3   691.7    0.00 
 112    9:20   0.76   46.8    56    7.1   174    13.7   691.7    0.00 
 112    9:30   0.78   47.1    54    6.4   188    12.5   691.7    0.00 
 112    9:40   0.77   47.9    55    5.6   175    10.2   691.7    0.00 
 112    9:50   0.84   47.4    55    5.8   193    10.2   691.7    0.00 
 112   10:00   0.65   48.2    55    4.8   187    10.2   691.7    0.00 
 112   10:10   0.44   46.6    58    4.9   208    11.3   691.7    0.00 
 112   10:20   0.60   46.7    56    5.9   209    13.1   691.7    0.00 
 112   10:30   0.81   46.9    56    5.6   219    13.1   691.7    0.00 
 112   10:40   0.89   48.1    52    6.6   209    15.5   691.6    0.00 
 112   10:50   0.67   48.0    54    5.8   208    13.7   691.5    0.00 
 112   11:00   0.65   47.4    51    6.2   222    13.7   691.4    0.00 
 112   11:10   0.87   48.3    47    6.8   204    16.1   691.3    0.00 
 112   11:20   1.02   48.9    46    7.6   204    17.3   691.2    0.00 
 112   11:30   1.00   50.1    47    6.5   221    17.9   691.1    0.00 
 112   11:40   0.77   49.7    45    7.0   219    14.3   691.0    0.00 
 112   11:50   0.63   48.9    48    7.4   198    14.9   690.8    0.00 
 112   12:00   0.90   49.7    45    6.5   198    14.3   690.7    0.00 
 112   12:10   1.05   49.5    42    9.6   194    19.1   690.6    0.00 
 112   12:20   1.02   51.3    40    8.0   210    16.1   690.4    0.00 
 112   12:30   0.60   50.1    39    7.9   204    22.1   690.3    0.00 
 112   12:40   0.73   50.2    38    7.5   199    15.5   690.3    0.00 
 112   12:50   0.87   50.4    40    7.9   203    17.9   690.1    0.00 
 112   13:00   0.89   51.5    37    7.9   201    18.5   690.0    0.00 
 112   13:10   0.71   50.9    37    8.0   201    21.5   689.9    0.00 
 112   13:20   0.62   51.0    34    6.9   166    15.5   689.8    0.00 
 112   13:30   0.59   51.8    35    7.2   191    16.7   689.7    0.00 
 112   13:40   0.72   52.3    35    6.7   194    16.7   689.7    0.00 
 112   13:50   0.62   52.1    35    7.2   213    20.3   689.5    0.00 
 112   14:00   0.49   51.0    35    8.6   214    19.1   689.5    0.00 
 112   14:10   0.46   51.3    37    5.7   188    11.9   689.3    0.00 
 112   14:20   0.71   52.0    36    6.8   179    14.9   689.1    0.00 
 112   14:30   0.36   51.7    36    7.0   190    17.9   689.1    0.00 
 112   14:40   0.79   51.5    38    5.7   188    13.7   688.9    0.00 
 112   14:50   0.23   51.5    36    6.6   169    13.1   688.7    0.00 
 112   15:00   0.32   50.2    38    7.0   202    16.1   688.6    0.00 
 112   15:10   0.36   51.1    38    5.7   163    16.7   688.4    0.00 
 112   15:20   0.25   50.8    37    5.4   198    17.9   688.3    0.00 
 112   15:30   0.34   50.7    35    5.8   198    14.9   688.2    0.00 
 112   15:40   0.47   52.9    32    6.9   210    17.3   688.0    0.00 
 112   15:50   0.19   51.4    32    5.7   192    13.1   688.0    0.00 
 112   16:00   0.27   51.4    34    5.5   200    11.9   687.9    0.00 
 112   16:10   0.34   51.9    32    5.7   200    15.5   687.8    0.00 
 112   16:20   0.26   51.5    33    5.7   185    14.3   687.8    0.00 
 112   16:30   0.50   52.1    34    7.7   192    15.5   687.7    0.00 
 112   16:40   0.43   52.7    33    6.9   194    15.5   687.7    0.00 
 112   16:50   0.42   51.9    34    7.9   196    16.1   687.6    0.00 
 112   17:00   0.25   51.8    32    7.6   193    14.3   687.5    0.00 
 112   17:10   0.17   49.9    35    6.7   192    11.9   687.5    0.00 
 112   17:20   0.12   49.0    38    6.4   190    11.9   687.4    0.00 
 112   17:30   0.12   48.5    40    5.0   182    10.8   687.3    0.00 
 112   17:40   0.11   48.1    40    6.2   171    11.9   687.1    0.00 
 112   17:50   0.09   47.9    42    5.2   178    12.5   687.0    0.00 
 112   18:00   0.06   47.4    43    5.4   182    12.5   686.9    0.00 
 112   18:10   0.03   46.8    43    5.8   179    11.9   686.8    0.00 
 112   18:20   0.01   46.7    43    4.7   185    10.2   686.8    0.00 
 112   18:30   0.01   46.5    44    4.1   184     7.8   686.8    0.00 
 112   18:40   0.00   46.4    44    6.8   175    16.7   686.8    0.00 
 112   18:50   0.00   46.0    44    6.7   182    13.1   686.6    0.00 
 112   19:00   0.00   45.8    44    7.7   184    14.3   686.6    0.00 
 112   19:10   0.00   45.8    43    5.6   173    13.1   686.6    0.00 
 112   19:20   0.00   45.8    44    5.1   188    11.9   686.6    0.00 
 112   19:30   0.00   45.0    48    7.1   171    22.1   686.8    0.01 
 112   19:40   0.00   43.5    53    5.9   201    13.7   686.6    0.00 
 112   19:50   0.00   44.9    46    5.0   167    11.9   686.5    0.00 
 112   20:00   0.00   45.3    45    5.1   170    10.2   686.6    0.00 
 112   20:10   0.00   44.9    47    7.1   168    13.7   686.7    0.00 
 112   20:20   0.00   44.9    46    6.5   184    20.3   686.8    0.00 
 112   20:30   0.00   43.2    55    7.9   214    19.1   687.0    0.00 
 112   20:40   0.00   43.5    51    4.6   171    12.5   686.7    0.00 
 112   20:50   0.00   43.9    49    5.6   194    13.7   686.8    0.00 
 112   21:00   0.00   44.0    49    7.6   175    17.9   686.8    0.00 
 112   21:10   0.00   44.0    48    6.4   174    14.3   686.7    0.00 
 112   21:20   0.00   44.0    48    5.1   168     9.0   686.6    0.00 
 112   21:30   0.00   44.4    46    6.5   172    14.9   686.5    0.00 
 112   21:40   0.00   44.5    46    5.6   185    13.1   686.5    0.00 
 112   21:50   0.00   44.3    45    6.0   177    15.5   686.3    0.00 
 112   22:00   0.00   44.7    44    7.4   174    14.9   686.2    0.00 
 112   22:10   0.00   45.0    42    6.3   178    14.9   686.1    0.00 
 112   22:20   0.00   45.0    42    6.2   183    13.7   686.1    0.00 
 112   22:30   0.00   44.9    42    6.4   190    15.5   686.0    0.00 
 112   22:40   0.00   44.8    41    6.2   182    14.3   685.9    0.00 
 112   22:50   0.00   45.0    39    6.6   187    13.7   685.9    0.00 
 112   23:00   0.00   45.0    39    5.9   178    11.3   685.8    0.00 
 112   23:10   0.00   45.0    38    5.6   181    13.7   685.8    0.00 
 112   23:20   0.00   44.9    38    6.5   198    14.3   685.7    0.00 
 112   23:30   0.00   44.7    38    7.0   204    17.9   685.7    0.00 
 112   23:40   0.00   44.4    38    5.3   244    12.5   685.8    0.00 
 112   23:50   0.00   43.9    40    5.2   291    12.5   685.7    0.00 
 113    0:00   0.00   43.2    41    5.6   304    11.3   685.6    0.00 
 113    0:10   0.00   42.6    43    4.4   305    10.2   685.5    0.00 
 113    0:20   0.00   42.0    44    4.9   311    13.7   685.4    0.00 
 113    0:30   0.00   41.3    46    4.7   332     9.0   685.3    0.00 
 113    0:40   0.00   41.0    47    4.8   327    11.9   685.2    0.00 
 113    0:50   0.00   40.8    48    5.0   328    12.5   685.1    0.00 
 113    1:00   0.00   40.5    49    4.9   336    10.8   685.0    0.00 
 113    1:10   0.00   40.3    49    6.4   319    13.1   684.8    0.00 
 113    1:20   0.00   40.1    50    6.0   330    12.5   684.6    0.00 

Return to Redondo, Valles Caldera graphs page.


Western Regional Climate Center,wrcc@dri.edu